Time;durP1;ratioP1;P1;durP2;ratioP2;P2;SDS_P1;SDS_P2;PMS_P1;PMS_P2;Temp;Humidity;BMP_temperature;BMP_pressure;BME280_temperature;BME280_humidity;BME280_pressure;Samples;Min_cycle;Max_cycle;Signal;HPM_P1;HPM_P2
2022/06/30 00:01:52;;;;;;;14.88;10.70;;;;;;;20.15;74.74;100863.00;6247178;23;20376;-87
2022/06/30 00:04:21;;;;;;;16.05;10.95;;;;;;;20.13;74.69;100878.97;6195027;23;20095;-88
2022/06/30 00:06:50;;;;;;;14.47;10.30;;;;;;;20.11;74.71;100878.44;6219196;23;20008;-88
2022/06/30 00:09:18;;;;;;;15.55;10.50;;;;;;;20.02;75.03;100874.59;6219289;23;20011;-88
2022/06/30 00:11:58;;;;;;;12.23;10.18;;;;;;;20.06;74.69;100869.34;6219450;23;20065;-88
2022/06/30 00:14:23;;;;;;;15.60;10.98;;;;;;;19.98;75.59;100868.81;6219970;23;20012;-88
2022/06/30 00:16:51;;;;;;;12.47;10.43;;;;;;;19.93;76.65;100866.09;6246111;23;20008;-88
2022/06/30 00:19:47;;;;;;;17.42;10.50;;;;;;;19.92;76.29;100875.44;6219069;23;20004;-88
2022/06/30 00:22:16;;;;;;;12.13;10.25;;;;;;;19.84;77.33;100870.47;6186796;23;20012;-88
2022/06/30 00:24:51;;;;;;;;;;;;;;;;;;;;;
2022/06/30 00:27:20;;;;;;;14.83;10.33;;;;;;;19.70;76.73;100852.88;6246672;23;20075;-88
2022/06/30 00:29:48;;;;;;;18.05;10.13;;;;;;;19.67;78.32;100848.72;6246241;23;20008;-88
2022/06/30 00:32:31;;;;;;;14.43;10.38;;;;;;;19.62;79.60;100845.97;6195067;23;20066;-88
2022/06/30 00:35:01;;;;;;;17.77;10.93;;;;;;;19.61;80.91;100844.34;6218971;23;20012;-88
2022/06/30 00:37:27;;;;;;;13.88;9.90;;;;;;;19.60;79.65;100853.69;6195213;23;20016;-88
2022/06/30 00:40:02;;;;;;;12.97;9.80;;;;;;;19.56;79.33;100852.59;6219585;23;20449;-88
2022/06/30 00:43:08;;;;;;;10.85;9.60;;;;;;;19.58;78.90;100858.66;6221450;23;20023;-88
2022/06/30 00:46:03;;;;;;;14.55;10.02;;;;;;;19.52;78.40;100860.56;6203349;23;20013;-88
2022/06/30 00:48:46;;;;;;;;;;;;;;;;;;;;;
2022/06/30 00:51:21;;;;;;;;;;;;;;;;;;;;;
2022/06/30 00:54:07;;;;;;;13.45;9.70;;;;;;;19.37;79.80;100869.66;6246218;23;20087;-88
2022/06/30 00:56:42;;;;;;;12.48;9.98;;;;;;;19.36;80.48;100856.19;6219018;23;20020;-87
2022/06/30 00:59:12;;;;;;;14.98;9.95;;;;;;;19.39;80.86;100870.19;6219827;23;20011;-88
2022/06/30 01:01:49;;;;;;;13.90;10.00;;;;;;;19.32;81.05;100861.38;6219183;23;20087;-88
2022/06/30 01:04:45;;;;;;;14.23;9.23;;;;;;;19.27;79.46;100859.47;6220144;23;20399;-87
2022/06/30 01:07:27;;;;;;;;;;;;;;;;;;;;;
2022/06/30 01:13:13;;;;;;;13.73;9.35;;;;;;;19.21;79.09;100863.31;6247915;23;20023;-88
2022/06/30 01:15:49;;;;;;;14.13;9.80;;;;;;;19.07;80.53;100852.03;6222222;23;20000;-88
2022/06/30 01:18:32;;;;;;;11.05;9.32;;;;;;;19.18;82.07;100879.53;6169715;23;20016;-88
2022/06/30 01:21:22;;;;;;;13.80;9.10;;;;;;;19.13;81.36;100865.78;6199178;23;20031;-88
2022/06/30 01:24:20;;;;;;;13.63;10.15;;;;;;;19.08;81.49;100874.84;6222008;23;20008;-88
2022/06/30 01:30:32;;;;;;;12.57;9.30;;;;;;;18.98;80.92;100863.81;6214360;23;20431;-88
2022/06/30 01:33:23;;;;;;;13.32;9.82;;;;;;;18.97;79.99;100870.41;6207526;23;20035;-88
2022/06/30 01:35:54;;;;;;;10.77;8.98;;;;;;;18.94;82.70;100877.25;6247313;23;20043;-88
2022/06/30 01:38:29;;;;;;;12.90;9.25;;;;;;;18.89;82.84;100867.09;6172706;23;20088;-88
2022/06/30 01:41:15;;;;;;;10.52;8.50;;;;;;;18.88;82.47;100862.69;6221706;23;20031;-88
2022/06/30 01:43:53;;;;;;;14.17;9.27;;;;;;;18.81;81.45;100864.00;6221246;23;20027;-88
2022/06/30 01:46:35;;;;;;;14.23;9.43;;;;;;;18.84;84.31;100880.78;6197148;23;20039;-87
2022/06/30 01:49:09;;;;;;;12.13;9.70;;;;;;;18.66;84.96;100865.63;6221216;23;20019;-88
2022/06/30 01:51:49;;;;;;;13.30;9.68;;;;;;;18.59;83.60;100873.28;6220939;23;20008;-88
2022/06/30 01:54:22;;;;;;;11.60;9.40;;;;;;;18.59;84.90;100871.34;6220430;23;20016;-88
2022/06/30 01:57:09;;;;;;;14.00;9.67;;;;;;;18.62;83.91;100871.94;6220026;23;20035;-88
2022/06/30 01:59:55;;;;;;;12.18;9.55;;;;;;;18.59;84.05;100871.34;6221117;23;19996;-88
2022/06/30 02:02:53;;;;;;;12.63;8.88;;;;;;;18.52;83.55;100868.03;6221141;23;19996;-88
2022/06/30 02:05:36;;;;;;;;;;;;;;;;;;;;;
2022/06/30 02:08:40;;;;;;;10.30;8.20;;;;;;;18.47;83.47;100879.00;6247820;23;20078;-88
2022/06/30 02:11:11;;;;;;;13.27;9.80;;;;;;;18.35;85.89;100879.22;6220896;23;20098;-88
2022/06/30 02:14:04;;;;;;;11.57;9.10;;;;;;;18.33;84.29;100886.88;6220356;23;20004;-88
2022/06/30 02:16:41;;;;;;;;;;;;;;;;;;;;;
2022/06/30 02:19:21;;;;;;;13.82;9.02;;;;;;;18.30;86.04;100889.34;6247817;23;20079;-88
2022/06/30 02:22:20;;;;;;;;;;;;;;;;;;;;;
2022/06/30 02:24:56;;;;;;;13.37;8.73;;;;;;;18.20;85.95;100890.09;6238008;23;20369;-88
2022/06/30 02:27:55;;;;;;;;;;;;;;;;;;;;;
2022/06/30 02:30:25;;;;;;;12.27;9.90;;;;;;;18.04;85.13;100903.75;6247908;23;20372;-88
2022/06/30 02:33:21;;;;;;;;;;;;;;;;;;;;;
2022/06/30 02:35:57;;;;;;;13.85;9.57;;;;;;;17.95;83.19;100888.88;6246898;23;20087;-88
2022/06/30 02:38:27;;;;;;;12.20;9.73;;;;;;;18.01;83.46;100893.31;6247396;23;20004;-88
2022/06/30 02:41:00;;;;;;;12.20;9.70;;;;;;;17.95;84.78;100893.50;6195209;23;20004;-88
2022/06/30 02:43:31;;;;;;;12.95;9.23;;;;;;;18.00;83.51;100904.56;6221384;23;20015;-87
2022/06/30 02:46:15;;;;;;;12.57;10.32;;;;;;;17.91;84.61;100886.91;6171772;23;20153;-88
2022/06/30 02:48:45;;;;;;;14.02;9.55;;;;;;;17.85;84.90;100880.53;6173701;23;20011;-88
2022/06/30 02:51:21;;;;;;;13.43;9.80;;;;;;;17.82;85.32;100879.13;6195411;23;20011;-87
2022/06/30 02:54:02;;;;;;;11.32;9.93;;;;;;;17.78;85.93;100886.25;6197264;23;20030;-88
2022/06/30 02:56:36;;;;;;;15.50;10.55;;;;;;;17.76;85.02;100888.44;6219580;23;20012;-88
2022/06/30 02:59:22;;;;;;;12.35;9.85;;;;;;;17.77;84.78;100887.31;6220252;23;20054;-88
2022/06/30 03:02:01;;;;;;;14.05;9.48;;;;;;;17.69;85.74;100879.59;6220234;23;20391;-88
2022/06/30 03:04:45;;;;;;;15.77;10.17;;;;;;;17.76;84.44;100882.09;6220690;23;20008;-87
2022/06/30 03:07:23;;;;;;;14.65;9.60;;;;;;;17.62;83.96;100879.78;6220612;23;20022;-88
2022/06/30 03:10:04;;;;;;;14.35;9.32;;;;;;;17.60;85.33;100875.66;6220767;23;20004;-88
2022/06/30 03:12:57;;;;;;;13.98;10.38;;;;;;;17.67;85.13;100888.09;6197025;23;20091;-88
2022/06/30 03:15:56;;;;;;;14.93;9.35;;;;;;;17.62;84.95;100882.53;6220534;23;20011;-87
2022/06/30 03:18:39;;;;;;;;;;;;;;;;;;;;;
2022/06/30 03:21:10;;;;;;;14.32;9.63;;;;;;;17.54;87.70;100881.09;6223168;23;20076;-88
2022/06/30 03:23:40;;;;;;;10.70;9.48;;;;;;;17.45;85.99;100868.97;6195020;23;20019;-87
2022/06/30 03:26:16;;;;;;;12.82;10.20;;;;;;;17.41;84.47;100870.56;6220355;23;20012;-87
2022/06/30 03:28:59;;;;;;;;;;;;;;;;;;;;;
2022/06/30 03:31:38;;;;;;;14.77;10.13;;;;;;;17.43;86.72;100882.09;6246366;23;20091;-88
2022/06/30 03:34:27;;;;;;;16.63;10.52;;;;;;;17.31;86.11;100876.78;6219853;23;20016;-87
2022/06/30 03:36:57;;;;;;;16.15;10.70;;;;;;;17.29;85.76;100876.22;6246313;23;20051;-88
2022/06/30 03:39:25;;;;;;;14.65;10.15;;;;;;;17.35;87.51;100880.66;6219406;23;20008;-87
2022/06/30 03:42:03;;;;;;;11.60;9.75;;;;;;;17.35;89.17;100879.84;6219644;23;20000;-87
2022/06/30 03:45:01;;;;;;;12.10;10.37;;;;;;;17.30;87.40;100866.91;6196247;23;20004;-88
2022/06/30 03:47:45;;;;;;;;;;;;;;;;;;;;;
2022/06/30 03:50:43;;;;;;;;;;;;;;;;;;;;;
2022/06/30 03:53:26;;;;;;;11.90;10.00;;;;;;;17.26;87.24;100876.75;6246267;23;20088;-88
2022/06/30 03:56:04;;;;;;;12.32;9.52;;;;;;;17.26;88.62;100868.53;6195802;23;20023;-88
2022/06/30 03:58:43;;;;;;;13.87;9.50;;;;;;;17.36;88.25;100873.25;6194596;23;20041;-88
2022/06/30 04:01:22;;;;;;;12.65;10.18;;;;;;;17.32;87.73;100862.00;6222383;23;20091;-88
2022/06/30 04:03:50;;;;;;;14.75;10.07;;;;;;;17.34;87.16;100859.00;6246162;23;20027;-87
2022/06/30 04:06:23;;;;;;;13.02;10.02;;;;;;;17.28;86.54;100860.84;6219599;23;20058;-87
2022/06/30 04:09:01;;;;;;;;;;;;;;;;;;;;;
2022/06/30 04:18:18;;;;;;;17.55;10.02;;;;;;;17.37;87.04;100858.47;6154046;22;20506;-88
2022/06/30 04:20:44;;;;;;;12.98;9.52;;;;;;;17.40;87.08;100877.13;6219812;23;20066;-88
2022/06/30 04:23:32;;;;;;;12.93;9.77;;;;;;;17.43;85.67;100881.28;6218872;23;20004;-88
2022/06/30 04:26:09;;;;;;;14.07;10.00;;;;;;;17.36;85.44;100879.59;6219428;23;20012;-88
2022/06/30 04:29:07;;;;;;;14.90;9.93;;;;;;;17.33;85.02;100873.78;6194403;23;20016;-88
2022/06/30 04:34:41;;;;;;;13.67;9.90;;;;;;;17.24;85.47;100887.13;6222975;23;20035;-88
2022/06/30 04:37:19;;;;;;;;;;;;;;;;;;;;;
2022/06/30 04:43:15;;;;;;;17.80;12.15;;;;;;;16.93;87.81;100908.75;6224568;23;20099;-88
2022/06/30 04:45:49;;;;;;;16.33;13.82;;;;;;;16.84;88.85;100927.53;6248549;23;20031;-88
2022/06/30 04:48:22;;;;;;;19.33;13.77;;;;;;;16.72;89.58;100915.03;6221481;23;20011;-88
2022/06/30 04:51:16;;;;;;;21.33;16.40;;;;;;;16.73;90.57;100949.56;6248585;23;20095;-88
2022/06/30 04:54:16;;;;;;;;;;;;;;;;;;;;;
2022/06/30 04:56:53;;;;;;;19.35;17.30;;;;;;;16.56;91.25;100935.91;6249209;23;20092;-88
2022/06/30 04:59:24;;;;;;;21.95;17.27;;;;;;;16.51;92.17;100936.69;6222393;23;20004;-88
2022/06/30 05:02:15;;;;;;;27.77;17.87;;;;;;;16.50;92.55;100929.53;6221174;23;20000;-87
2022/06/30 05:04:43;;;;;;;24.58;19.23;;;;;;;16.61;92.98;100944.22;6220915;23;20015;-88
2022/06/30 05:07:24;;;;;;;28.55;19.35;;;;;;;16.55;92.51;100924.13;6220820;23;20019;-88
2022/06/30 05:10:12;;;;;;;23.67;20.63;;;;;;;16.54;92.23;100930.69;6195899;23;20091;-87
2022/06/30 05:13:09;;;;;;;22.30;17.92;;;;;;;16.70;92.33;100948.16;6222685;23;20086;-92
2022/06/30 05:15:45;;;;;;;26.93;21.40;;;;;;;16.81;91.91;100932.69;6224392;23;20014;-91
2022/06/30 05:18:20;;;;;;;;;;;;;;;;;;;;;
2022/06/30 05:21:01;;;;;;;28.20;20.38;;;;;;;16.98;90.84;100929.91;6255287;23;20032;-93
2022/06/30 05:27:16;;;;;;;27.30;21.08;;;;;;;17.04;90.45;100936.25;6231628;23;20023;-92
2022/06/30 05:29:49;;;;;;;28.13;20.77;;;;;;;17.05;90.79;100936.03;6197928;23;20016;-92
2022/06/30 05:32:24;;;;;;;27.58;19.80;;;;;;;17.11;90.15;100928.66;6197586;23;20008;-91
2022/06/30 05:35:18;;;;;;;29.80;20.20;;;;;;;17.08;89.97;100938.25;6221071;23;20430;-91
2022/06/30 05:41:31;;;;;;;;;;;;;;;;;;;;;
2022/06/30 05:51:27;;;;;;;29.00;14.90;;;;;;;17.17;87.74;100941.38;6219194;23;20019;-92
2022/06/30 05:54:51;;;;;;;;;;;;;;;;;;;;;
2022/06/30 06:01:18;;;;;;;;;;;;;;;;;;;;;
2022/06/30 06:04:03;;;;;;;20.30;12.57;;;;;;;17.44;85.92;100929.56;6247946;23;20083;-90
2022/06/30 06:06:44;;;;;;;17.48;12.40;;;;;;;17.43;85.75;100928.72;6217338;23;20009;-90
2022/06/30 06:09:20;;;;;;;;;;;;;;;;;;;;;
2022/06/30 06:11:59;;;;;;;;;;;;;;;;;;;;;
2022/06/30 06:18:50;;;;;;;;;;;;;;;;;;;;;
2022/06/30 06:21:21;;;;;;;22.27;11.18;;;;;;;17.60;86.40;100963.44;6248062;23;20083;-88
2022/06/30 06:24:32;;;;;;;15.00;10.85;;;;;;;17.63;86.62;100963.75;6223045;23;20054;-92
2022/06/30 06:27:09;;;;;;;15.05;10.30;;;;;;;17.66;87.06;100967.91;6250302;23;20035;-94
2022/06/30 06:29:44;;;;;;;;;;;;;;;;;;;;;
2022/06/30 06:32:13;;;;;;;17.60;10.27;;;;;;;17.77;86.79;100960.59;6248304;23;20079;-86
2022/06/30 06:34:42;;;;;;;17.13;10.52;;;;;;;17.80;87.31;100960.06;6246510;23;20369;-87
2022/06/30 06:37:15;;;;;;;15.10;9.93;;;;;;;17.83;86.45;100970.53;6219465;23;20043;-85
2022/06/30 06:39:41;;;;;;;16.42;10.35;;;;;;;17.80;85.91;100965.56;6195555;23;20008;-86
2022/06/30 06:42:09;;;;;;;19.60;10.10;;;;;;;17.77;86.21;100964.16;6219476;23;20008;-86
2022/06/30 06:44:51;;;;;;;19.83;9.43;;;;;;;17.86;86.33;100972.75;6219461;23;20008;-85
2022/06/30 06:47:31;;;;;;;;;;;;;;;;;;;;;
2022/06/30 06:50:02;;;;;;;20.50;10.40;;;;;;;17.84;86.28;100985.91;6200580;23;20091;-86
2022/06/30 06:52:35;;;;;;;14.05;10.25;;;;;;;17.82;86.58;100979.84;6219925;23;20036;-85
2022/06/30 06:55:08;;;;;;;15.77;10.07;;;;;;;17.83;86.96;100971.38;6195669;23;20016;-86
2022/06/30 06:57:43;;;;;;;19.40;10.27;;;;;;;17.91;86.15;100981.06;6219218;23;20012;-86
2022/06/30 07:00:21;;;;;;;21.58;10.40;;;;;;;17.95;85.99;100982.19;6221045;23;20004;-86
2022/06/30 07:02:55;;;;;;;17.70;9.98;;;;;;;17.94;85.60;100977.78;6220148;23;20011;-85
2022/06/30 07:05:32;;;;;;;18.00;9.68;;;;;;;18.05;86.93;100992.41;6220118;23;20031;-86
2022/06/30 07:07:59;;;;;;;18.95;9.43;;;;;;;18.05;85.89;100989.69;6197094;23;20085;-85
2022/06/30 07:10:35;;;;;;;16.07;9.60;;;;;;;18.08;85.86;101002.88;6219919;23;20411;-86
2022/06/30 07:16:00;;;;;;;17.83;9.70;;;;;;;18.28;85.15;101012.34;6247088;23;20058;-86
2022/06/30 07:18:29;;;;;;;15.90;8.95;;;;;;;18.34;85.98;101023.13;6194639;23;20019;-86
2022/06/30 07:23:48;;;;;;;18.03;8.20;;;;;;;18.40;83.99;101016.56;6230007;23;20091;-85
2022/06/30 07:26:13;;;;;;;20.20;8.35;;;;;;;18.46;84.37;101013.88;6219133;23;20015;-85
2022/06/30 07:28:51;;;;;;;19.33;7.90;;;;;;;18.52;83.35;101012.81;6246277;23;20079;-86
2022/06/30 07:31:41;;;;;;;14.93;8.00;;;;;;;18.54;83.22;101016.13;6196448;23;20496;-85
2022/06/30 07:34:17;;;;;;;16.63;7.90;;;;;;;18.63;82.83;101006.31;6220117;23;20062;-86
2022/06/30 07:36:42;;;;;;;17.60;7.22;;;;;;;18.70;83.54;101003.31;6219115;23;20103;-85
2022/06/30 07:39:10;;;;;;;13.57;7.97;;;;;;;18.84;81.71;101020.13;6219236;23;20351;-86
2022/06/30 07:41:51;;;;;;;;;;;;;;;;;;;;;
2022/06/30 07:44:34;;;;;;;15.15;6.63;;;;;;;18.98;80.35;101010.34;6247253;23;20450;-86
2022/06/30 07:47:00;;;;;;;13.85;6.68;;;;;;;19.09;80.07;101014.00;6170610;23;20062;-86
2022/06/30 07:49:50;;;;;;;15.40;6.43;;;;;;;19.18;79.14;101017.88;6245929;23;20369;-86
2022/06/30 07:52:20;;;;;;;16.10;6.13;;;;;;;19.13;78.36;101015.09;6218453;23;20063;-86
2022/06/30 07:54:51;;;;;;;13.52;5.88;;;;;;;19.09;76.93;101006.56;6195089;23;20009;-86
2022/06/30 07:57:29;;;;;;;11.02;5.75;;;;;;;19.12;75.99;101021.69;6195122;23;20044;-86
2022/06/30 08:00:08;;;;;;;;;;;;;;;;;;;;;
2022/06/30 08:02:53;;;;;;;12.40;6.17;;;;;;;19.32;75.86;101003.59;6222620;23;20083;-86
2022/06/30 08:05:22;;;;;;;13.40;5.72;;;;;;;19.39;76.01;101002.25;6218971;23;20091;-85
2022/06/30 08:08:00;;;;;;;12.73;5.03;;;;;;;19.43;74.84;100992.38;6219557;23;20008;-86
2022/06/30 08:10:35;;;;;;;11.68;5.15;;;;;;;19.52;74.07;100992.66;6219761;23;20077;-87
2022/06/30 08:13:24;;;;;;;12.63;5.63;;;;;;;19.55;73.34;100992.13;6222075;23;20015;-86
2022/06/30 08:16:04;;;;;;;12.27;5.50;;;;;;;19.60;72.22;100999.53;6223450;23;20319;-86
2022/06/30 08:18:31;;;;;;;13.52;5.05;;;;;;;19.76;73.70;101008.66;6221549;23;20015;-87
2022/06/30 08:21:07;;;;;;;11.73;5.25;;;;;;;19.75;73.02;101005.09;6221471;23;20501;-86
2022/06/30 08:24:05;;;;;;;9.05;4.97;;;;;;;19.87;73.05;101006.75;6221908;23;20011;-86
2022/06/30 08:26:53;;;;;;;;;;;;;;;;;;;;;
2022/06/30 08:29:32;;;;;;;11.87;5.00;;;;;;;20.11;72.52;101016.16;6204182;23;20506;-86
2022/06/30 08:32:08;;;;;;;9.32;4.90;;;;;;;20.19;69.78;101009.25;6221525;23;20459;-86
2022/06/30 08:34:59;;;;;;;12.63;4.93;;;;;;;20.30;70.08;101019.19;6197532;23;20008;-86
2022/06/30 08:37:24;;;;;;;12.00;5.20;;;;;;;20.36;69.38;101019.16;6192051;23;20016;-86
2022/06/30 08:43:05;;;;;;;;;;;;;;;;;;;;;
2022/06/30 08:45:44;;;;;;;12.38;4.88;;;;;;;20.71;69.35;101011.97;6218614;23;20095;-88
2022/06/30 08:48:30;;;;;;;10.23;4.88;;;;;;;20.85;68.83;101011.09;6192176;23;20407;-86
2022/06/30 08:51:17;;;;;;;9.63;4.30;;;;;;;21.02;69.27;101010.78;6170327;23;20012;-86
2022/06/30 08:54:06;;;;;;;10.05;4.65;;;;;;;21.24;68.34;101020.59;6190573;23;20019;-86
2022/06/30 08:56:38;;;;;;;10.10;5.25;;;;;;;21.15;66.26;101008.50;6175820;23;20012;-86
2022/06/30 08:59:07;;;;;;;11.18;5.20;;;;;;;21.19;67.12;101012.34;6191272;23;20419;-86
2022/06/30 09:01:54;;;;;;;11.40;5.18;;;;;;;21.29;66.59;101017.81;6191092;23;20008;-86
2022/06/30 09:04:29;;;;;;;8.07;4.00;;;;;;;21.50;66.53;101028.75;6190715;23;20004;-86
2022/06/30 09:07:17;;;;;;;8.70;4.72;;;;;;;21.50;64.64;101015.81;6218361;23;20411;-86
2022/06/30 09:09:45;;;;;;;8.48;4.80;;;;;;;21.64;64.63;101020.69;6218139;23;20331;-85
2022/06/30 09:12:27;;;;;;;;;;;;;;;;;;;;;
2022/06/30 09:15:03;;;;;;;;;;;;;;;;;;;;;
2022/06/30 09:17:32;;;;;;;9.30;4.70;;;;;;;21.61;64.22;101027.59;6218341;23;20368;-86
2022/06/30 09:23:25;;;;;;;8.18;4.45;;;;;;;21.93;64.24;101031.81;6214186;23;20008;-86
2022/06/30 09:26:07;;;;;;;9.00;3.90;;;;;;;21.95;62.63;101017.72;6190462;23;20326;-87
2022/06/30 09:28:53;;;;;;;;;;;;;;;;;;;;;
2022/06/30 09:31:48;;;;;;;9.17;4.10;;;;;;;22.36;61.70;101029.28;6219179;23;20462;-88
2022/06/30 09:34:21;;;;;;;10.15;3.53;;;;;;;22.60;60.87;101023.81;6192003;23;20036;-86
2022/06/30 09:37:13;;;;;;;11.40;4.40;;;;;;;22.92;58.56;101022.31;6240854;23;20406;-87
2022/06/30 09:39:46;;;;;;;13.00;4.63;;;;;;;23.36;57.00;101033.47;6216252;23;20019;-86
2022/06/30 09:42:35;;;;;;;11.13;4.07;;;;;;;23.85;55.28;101025.84;6220398;23;20091;-86
2022/06/30 09:45:05;;;;;;;10.80;3.70;;;;;;;24.09;54.86;101025.75;6220318;23;20008;-86
2022/06/30 09:47:31;;;;;;;10.52;3.50;;;;;;;24.11;53.60;101021.56;6247294;23;20079;-86
2022/06/30 09:50:16;;;;;;;9.15;4.18;;;;;;;24.02;53.58;101020.59;6220317;23;20085;-86
2022/06/30 09:52:44;;;;;;;10.15;2.85;;;;;;;24.22;53.37;101029.69;6221106;23;20442;-86
2022/06/30 09:55:38;;;;;;;6.83;3.20;;;;;;;24.46;52.13;101016.50;6220018;23;20377;-87
2022/06/30 09:58:24;;;;;;;9.52;3.55;;;;;;;24.63;51.46;101015.94;6220685;23;20016;-86
2022/06/30 10:00:55;;;;;;;7.63;3.33;;;;;;;25.02;52.13;101033.22;6247002;23;20008;-86
2022/06/30 10:06:22;;;;;;;12.68;3.53;;;;;;;25.50;49.56;101026.41;6230806;23;20079;-86
2022/06/30 10:08:56;;;;;;;5.80;3.23;;;;;;;26.15;48.73;101033.50;6193773;23;20013;-90
2022/06/30 10:11:33;;;;;;;6.93;2.85;;;;;;;26.73;47.57;101039.25;6221179;23;20008;-86
2022/06/30 10:14:02;;;;;;;10.10;4.13;;;;;;;27.03;45.51;101028.38;6220307;23;20059;-86
2022/06/30 10:16:30;;;;;;;8.45;3.30;;;;;;;27.54;45.84;101035.25;6220047;23;20094;-86
2022/06/30 10:19:18;;;;;;;;;;;;;;;;;;;;;
2022/06/30 10:21:47;;;;;;;7.80;3.47;;;;;;;27.79;43.51;101036.41;6247811;23;20083;-86
2022/06/30 10:24:52;;;;;;;7.20;3.80;;;;;;;28.13;44.94;101026.38;6195951;23;20012;-86
2022/06/30 10:27:25;;;;;;;8.00;2.90;;;;;;;28.11;43.66;101009.19;6220682;23;20004;-87
2022/06/30 10:30:13;;;;;;;9.18;4.07;;;;;;;28.20;42.29;101013.91;6219289;23;20042;-86
2022/06/30 10:33:26;;;;;;;6.05;3.63;;;;;;;28.49;43.54;101019.59;6220076;23;20000;-87
2022/06/30 10:36:20;;;;;;;7.47;3.10;;;;;;;28.44;43.88;101016.97;6128868;23;20025;-86
2022/06/30 10:38:59;;;;;;;8.18;3.72;;;;;;;28.38;42.39;101023.88;6220892;23;20008;-87
2022/06/30 10:41:31;;;;;;;6.10;3.47;;;;;;;28.64;42.09;101015.47;6219876;23;20005;-86
2022/06/30 10:44:27;;;;;;;10.10;3.72;;;;;;;28.76;42.98;101020.34;6219702;23;20425;-86
2022/06/30 10:46:55;;;;;;;8.70;3.53;;;;;;;29.22;41.03;101015.03;6205129;23;20060;-86
2022/06/30 10:49:32;;;;;;;7.23;3.70;;;;;;;29.28;40.03;101015.66;6246325;23;20027;-87
2022/06/30 10:52:41;;;;;;;8.50;3.00;;;;;;;29.79;41.29;101012.78;6217363;23;20046;-86
2022/06/30 10:55:18;;;;;;;7.53;3.10;;;;;;;29.89;38.94;101002.00;6221434;23;20016;-87
2022/06/30 10:58:25;;;;;;;8.02;3.22;;;;;;;30.15;38.79;101002.91;6247284;23;20008;-86
2022/06/30 11:01:10;;;;;;;6.68;2.88;;;;;;;29.69;39.47;101012.03;6100004;23;20005;-87
2022/06/30 11:03:41;;;;;;;8.67;3.10;;;;;;;29.19;40.03;101024.88;6130740;23;20041;-87
2022/06/30 11:06:50;;;;;;;6.03;2.97;;;;;;;28.91;40.04;101023.69;6220739;23;20078;-87
2022/06/30 11:09:58;;;;;;;5.05;3.28;;;;;;;28.92;40.49;101014.97;6219472;23;20016;-87
2022/06/30 11:12:44;;;;;;;6.78;3.17;;;;;;;29.34;39.12;101017.91;6219783;23;20000;-88
2022/06/30 11:15:25;;;;;;;7.28;3.13;;;;;;;29.80;38.89;101009.63;6219975;23;20004;-86
2022/06/30 11:17:54;;;;;;;5.27;3.30;;;;;;;29.86;37.49;101007.47;6221615;23;20418;-86
2022/06/30 11:20:27;;;;;;;5.85;3.50;;;;;;;29.70;37.87;100998.88;6219821;23;20008;-86
2022/06/30 11:22:57;;;;;;;6.85;3.20;;;;;;;29.10;39.29;100987.78;6195488;23;20011;-86
2022/06/30 11:28:29;;;;;;;;;;;;;;;;;;;;;
2022/06/30 11:31:31;;;;;;;6.23;3.27;;;;;;;29.22;39.79;100998.28;6247444;23;20497;-85
2022/06/30 11:34:05;;;;;;;6.07;3.20;;;;;;;28.60;40.33;100988.53;6213501;23;20012;-87
2022/06/30 11:36:56;;;;;;;4.07;2.90;;;;;;;28.37;40.52;100985.97;6221352;23;20074;-86
2022/06/30 11:39:33;;;;;;;9.38;3.33;;;;;;;28.80;40.31;100982.19;6200395;23;20039;-86
2022/06/30 11:42:15;;;;;;;5.95;3.10;;;;;;;30.34;37.81;100983.63;6222983;23;20012;-86
2022/06/30 11:44:43;;;;;;;7.87;3.00;;;;;;;31.51;35.84;100978.56;6221341;23;20323;-86
2022/06/30 11:47:23;;;;;;;5.82;2.90;;;;;;;31.82;35.90;100974.28;6220117;23;20004;-86
2022/06/30 11:49:54;;;;;;;6.78;3.13;;;;;;;31.49;36.33;100978.91;6220034;23;20035;-86
2022/06/30 11:52:34;;;;;;;10.23;3.20;;;;;;;30.90;37.60;100977.50;6195252;23;20012;-86
2022/06/30 11:55:15;;;;;;;7.47;3.03;;;;;;;30.63;37.64;100967.00;6219900;23;20091;-86
2022/06/30 11:58:03;;;;;;;6.37;3.00;;;;;;;30.87;38.88;100966.16;6219882;23;20415;-86
2022/06/30 12:00:33;;;;;;;7.00;3.20;;;;;;;31.21;36.37;100955.63;6196125;23;20036;-87
2022/06/30 12:03:11;;;;;;;9.43;3.15;;;;;;;32.27;34.98;100933.78;6246658;23;20004;-87
2022/06/30 12:05:47;;;;;;;8.18;3.33;;;;;;;32.70;34.02;100928.44;6220199;23;20087;-87
2022/06/30 12:08:23;;;;;;;7.45;2.92;;;;;;;32.98;34.54;100919.03;6219609;23;20047;-87
2022/06/30 12:10:58;;;;;;;6.43;3.30;;;;;;;33.35;32.85;100930.75;6218966;23;20419;-87
2022/06/30 12:13:42;;;;;;;7.00;3.45;;;;;;;33.00;33.85;100927.94;6171589;23;20012;-87
2022/06/30 12:16:31;;;;;;;7.50;3.10;;;;;;;33.80;32.09;100916.38;6195667;23;20012;-88
2022/06/30 12:19:25;;;;;;;6.22;2.85;;;;;;;36.06;29.47;100909.53;6223594;23;20022;-87
2022/06/30 12:22:24;;;;;;;;;;;;;;;;;;;;;
2022/06/30 12:25:03;;;;;;;;;;;;;;;;;;;;;
2022/06/30 12:27:38;;;;;;;6.80;4.20;;;;;;;41.52;21.99;100886.88;6245985;23;20083;-88
2022/06/30 12:33:16;;;;;;;;;;;;;;;;;;;;;
2022/06/30 12:35:47;;;;;;;9.40;3.85;;;;;;;44.11;20.12;100875.25;6246264;23;20083;-88
2022/06/30 12:39:14;;;;;;;8.33;4.43;;;;;;;42.76;20.79;100878.69;6219799;23;20012;-89
2022/06/30 12:41:47;;;;;;;;;;;;;;;;;;;;;
2022/06/30 12:44:46;;;;;;;8.25;4.32;;;;;;;39.98;24.25;100887.31;6246431;23;20082;-88
2022/06/30 12:47:18;;;;;;;10.00;4.20;;;;;;;42.12;22.01;100891.25;6195904;23;20021;-88
2022/06/30 12:49:56;;;;;;;7.95;4.38;;;;;;;42.10;20.71;100880.28;6245805;23;20079;-88
2022/06/30 12:55:16;;;;;;;7.60;4.60;;;;;;;43.85;18.52;100877.16;6233809;23;20083;-89
2022/06/30 12:57:48;;;;;;;8.13;4.43;;;;;;;43.99;18.86;100884.56;6193833;23;20333;-89
2022/06/30 13:00:38;;;;;;;5.88;4.55;;;;;;;42.74;20.10;100881.19;6246288;23;20000;-89
2022/06/30 13:03:15;;;;;;;8.10;4.82;;;;;;;43.00;20.77;100864.34;6246104;23;20414;-88
2022/06/30 13:06:04;;;;;;;;;;;;;;;;;;;;;
2022/06/30 13:09:08;;;;;;;6.28;4.20;;;;;;;42.56;21.04;100852.97;6224090;23;20092;-89
2022/06/30 13:11:54;;;;;;;;;;;;;;;;;;;;;
2022/06/30 13:14:48;;;;;;;8.93;4.35;;;;;;;47.55;16.92;100840.56;6248292;23;20083;-89
2022/06/30 13:17:45;;;;;;;;;;;;;;;;;;;;;
2022/06/30 13:20:30;;;;;;;6.77;4.90;;;;;;;47.05;16.87;100848.31;6248940;23;20086;-89
2022/06/30 13:23:16;;;;;;;6.85;5.00;;;;;;;47.69;16.25;100847.81;6221929;23;20315;-89
2022/06/30 13:25:56;;;;;;;;;;;;;;;;;;;;;
2022/06/30 13:28:29;;;;;;;10.18;4.70;;;;;;;45.59;16.84;100845.25;6224332;23;20517;-89
2022/06/30 13:31:03;;;;;;;7.70;4.40;;;;;;;45.12;17.25;100852.47;6196953;23;20430;-89
2022/06/30 13:33:34;;;;;;;7.60;4.70;;;;;;;45.32;17.76;100854.31;6197300;23;20008;-89
2022/06/30 13:36:10;;;;;;;4.82;4.40;;;;;;;44.09;17.40;100862.69;6219490;23;20469;-89
2022/06/30 13:39:03;;;;;;;4.47;4.07;;;;;;;43.34;19.03;100859.56;6220375;23;20027;-89
2022/06/30 13:42:01;;;;;;;5.75;4.28;;;;;;;44.28;18.06;100858.09;6182113;23;20012;-89
2022/06/30 13:44:45;;;;;;;5.70;4.03;;;;;;;45.52;17.20;100866.38;6224109;23;20066;-89
2022/06/30 13:47:13;;;;;;;6.70;4.10;;;;;;;45.61;16.42;100864.84;6221333;23;20084;-89
2022/06/30 13:49:44;;;;;;;6.55;4.40;;;;;;;46.40;15.77;100870.78;6220760;23;20004;-89
2022/06/30 13:52:12;;;;;;;4.80;4.15;;;;;;;43.67;17.49;100871.84;6248196;23;20032;-89
2022/06/30 13:54:47;;;;;;;5.78;4.40;;;;;;;41.43;18.97;100863.03;6220177;23;20097;-89
2022/06/30 13:57:23;;;;;;;;;;;;;;;;;;;;;
2022/06/30 13:59:54;;;;;;;6.23;3.83;;;;;;;39.46;21.24;100862.47;6247917;23;20505;-88
2022/06/30 14:02:24;;;;;;;4.85;3.55;;;;;;;38.71;23.09;100842.97;6220359;23;20043;-88
2022/06/30 14:04:59;;;;;;;6.10;4.10;;;;;;;37.83;24.40;100840.63;6196470;23;20008;-89
2022/06/30 14:07:40;;;;;;;4.70;4.00;;;;;;;37.44;24.73;100838.50;6245418;23;20004;-88
2022/06/30 14:10:28;;;;;;;6.07;3.30;;;;;;;37.43;24.84;100831.22;6221493;23;20106;-88
2022/06/30 14:12:54;;;;;;;5.33;3.77;;;;;;;36.50;25.78;100832.44;6246316;23;20398;-88
2022/06/30 14:15:56;;;;;;;7.65;3.33;;;;;;;35.41;27.16;100847.59;6220807;23;20043;-88
2022/06/30 14:22:06;;;;;;;6.20;3.38;;;;;;;32.98;30.09;100840.38;6139805;23;20067;-89
2022/06/30 14:24:44;;;;;;;5.30;3.10;;;;;;;33.11;30.65;100850.28;6199020;23;20008;-88
2022/06/30 14:27:30;;;;;;;7.73;3.53;;;;;;;33.42;30.67;100845.69;6220800;23;20023;-88